sensor_id;sensor_type;location;lat;lon;timestamp;P1;durP1;ratioP1;P2;durP2;ratioP2
75342;SDS011;63936;51.006;13.764;2023-04-06T00:00:02;8;;;4;;
75342;SDS011;63936;51.006;13.764;2023-04-06T00:02:04;10;;;4;;
75342;SDS011;63936;51.006;13.764;2023-04-06T00:04:03;8;;;4;;
75342;SDS011;63936;51.006;13.764;2023-04-06T00:06:02;9;;;4;;
75342;SDS011;63936;51.006;13.764;2023-04-06T00:08:02;9;;;4;;
75342;SDS011;63936;51.006;13.764;2023-04-06T00:10:05;10;;;6;;
75342;SDS011;63936;51.006;13.764;2023-04-06T00:12:02;11;;;7;;
75342;SDS011;63936;51.006;13.764;2023-04-06T00:14:02;11;;;7;;
75342;SDS011;63936;51.006;13.764;2023-04-06T00:16:01;8;;;6;;
75342;SDS011;63936;51.006;13.764;2023-04-06T00:18:02;10;;;5;;
75342;SDS011;63936;51.006;13.764;2023-04-06T00:20:03;8;;;4;;
75342;SDS011;63936;51.006;13.764;2023-04-06T00:22:02;8;;;4;;
75342;SDS011;63936;51.006;13.764;2023-04-06T00:24:02;7;;;3;;
75342;SDS011;63936;51.006;13.764;2023-04-06T00:26:02;7;;;3;;
75342;SDS011;63936;51.006;13.764;2023-04-06T00:28:01;8;;;5;;
75342;SDS011;63936;51.006;13.764;2023-04-06T00:30:03;8;;;4;;
75342;SDS011;63936;51.006;13.764;2023-04-06T00:32:02;8;;;3;;
75342;SDS011;63936;51.006;13.764;2023-04-06T00:34:02;8;;;4;;
75342;SDS011;63936;51.006;13.764;2023-04-06T00:36:02;7;;;4;;
75342;SDS011;63936;51.006;13.764;2023-04-06T00:38:04;7;;;4;;
75342;SDS011;63936;51.006;13.764;2023-04-06T00:40:07;7;;;4;;
75342;SDS011;63936;51.006;13.764;2023-04-06T00:42:05;7;;;4;;
75342;SDS011;63936;51.006;13.764;2023-04-06T00:44:02;6;;;3;;
75342;SDS011;63936;51.006;13.764;2023-04-06T00:46:04;7;;;3;;
75342;SDS011;63936;51.006;13.764;2023-04-06T00:48:02;8;;;4;;
75342;SDS011;63936;51.006;13.764;2023-04-06T00:50:07;7;;;4;;
75342;SDS011;63936;51.006;13.764;2023-04-06T00:52:04;7;;;3;;
75342;SDS011;63936;51.006;13.764;2023-04-06T00:54:03;8;;;3;;
75342;SDS011;63936;51.006;13.764;2023-04-06T00:56:04;8;;;3;;
75342;SDS011;63936;51.006;13.764;2023-04-06T00:58:03;7;;;3;;
75342;SDS011;63936;51.006;13.764;2023-04-06T01:00:07;7;;;4;;
75342;SDS011;63936;51.006;13.764;2023-04-06T01:02:03;6;;;3;;
75342;SDS011;63936;51.006;13.764;2023-04-06T01:04:02;6;;;3;;
75342;SDS011;63936;51.006;13.764;2023-04-06T01:06:04;6;;;3;;
75342;SDS011;63936;51.006;13.764;2023-04-06T01:08:03;6;;;3;;
75342;SDS011;63936;51.006;13.764;2023-04-06T01:10:06;10;;;6;;
75342;SDS011;63936;51.006;13.764;2023-04-06T01:12:02;9;;;4;;
75342;SDS011;63936;51.006;13.764;2023-04-06T01:14:02;8;;;4;;
75342;SDS011;63936;51.006;13.764;2023-04-06T01:16:02;7;;;4;;
75342;SDS011;63936;51.006;13.764;2023-04-06T01:18:02;7;;;4;;
75342;SDS011;63936;51.006;13.764;2023-04-06T01:20:04;7;;;4;;
75342;SDS011;63936;51.006;13.764;2023-04-06T01:22:02;6;;;3;;
75342;SDS011;63936;51.006;13.764;2023-04-06T01:24:01;6;;;3;;
75342;SDS011;63936;51.006;13.764;2023-04-06T01:26:01;8;;;3;;
75342;SDS011;63936;51.006;13.764;2023-04-06T01:28:02;7;;;4;;
75342;SDS011;63936;51.006;13.764;2023-04-06T01:30:03;6;;;3;;
75342;SDS011;63936;51.006;13.764;2023-04-06T01:32:01;7;;;3;;
75342;SDS011;63936;51.006;13.764;2023-04-06T01:34:01;8;;;3;;
75342;SDS011;63936;51.006;13.764;2023-04-06T01:36:01;7;;;3;;
75342;SDS011;63936;51.006;13.764;2023-04-06T01:38:01;7;;;4;;
75342;SDS011;63936;51.006;13.764;2023-04-06T01:40:02;7;;;4;;
75342;SDS011;63936;51.006;13.764;2023-04-06T01:42:01;7;;;4;;
75342;SDS011;63936;51.006;13.764;2023-04-06T01:44:01;11;;;4;;
75342;SDS011;63936;51.006;13.764;2023-04-06T01:46:01;7;;;3;;
75342;SDS011;63936;51.006;13.764;2023-04-06T01:48:01;11;;;4;;
75342;SDS011;63936;51.006;13.764;2023-04-06T01:50:02;10;;;3;;
75342;SDS011;63936;51.006;13.764;2023-04-06T01:52:02;10;;;4;;
75342;SDS011;63936;51.006;13.764;2023-04-06T01:54:02;6;;;3;;
75342;SDS011;63936;51.006;13.764;2023-04-06T01:56:01;7;;;4;;
75342;SDS011;63936;51.006;13.764;2023-04-06T01:58:01;7;;;4;;
75342;SDS011;63936;51.006;13.764;2023-04-06T02:00:04;6;;;3;;
75342;SDS011;63936;51.006;13.764;2023-04-06T02:02:02;6;;;3;;
75342;SDS011;63936;51.006;13.764;2023-04-06T02:04:02;6;;;3;;
75342;SDS011;63936;51.006;13.764;2023-04-06T02:06:03;6;;;3;;
75342;SDS011;63936;51.006;13.764;2023-04-06T02:08:02;9;;;6;;
75342;SDS011;63936;51.006;13.764;2023-04-06T02:10:04;9;;;6;;
75342;SDS011;63936;51.006;13.764;2023-04-06T02:12:01;7;;;3;;
75342;SDS011;63936;51.006;13.764;2023-04-06T02:14:01;7;;;3;;
75342;SDS011;63936;51.006;13.764;2023-04-06T02:16:01;8;;;3;;
75342;SDS011;63936;51.006;13.764;2023-04-06T02:18:01;8;;;3;;
75342;SDS011;63936;51.006;13.764;2023-04-06T02:20:02;9;;;5;;
75342;SDS011;63936;51.006;13.764;2023-04-06T02:22:01;9;;;4;;
75342;SDS011;63936;51.006;13.764;2023-04-06T02:24:01;11;;;4;;
75342;SDS011;63936;51.006;13.764;2023-04-06T02:26:02;11;;;4;;
75342;SDS011;63936;51.006;13.764;2023-04-06T02:28:02;7;;;3;;
75342;SDS011;63936;51.006;13.764;2023-04-06T02:30:02;7;;;4;;
75342;SDS011;63936;51.006;13.764;2023-04-06T02:32:01;7;;;4;;
75342;SDS011;63936;51.006;13.764;2023-04-06T02:34:01;7;;;3;;
75342;SDS011;63936;51.006;13.764;2023-04-06T02:36:01;7;;;3;;
75342;SDS011;63936;51.006;13.764;2023-04-06T02:38:01;7;;;3;;
75342;SDS011;63936;51.006;13.764;2023-04-06T02:40:02;11;;;6;;
75342;SDS011;63936;51.006;13.764;2023-04-06T02:42:02;10;;;6;;
75342;SDS011;63936;51.006;13.764;2023-04-06T02:44:02;10;;;6;;
75342;SDS011;63936;51.006;13.764;2023-04-06T02:46:01;11;;;6;;
75342;SDS011;63936;51.006;13.764;2023-04-06T02:48:01;8;;;4;;
75342;SDS011;63936;51.006;13.764;2023-04-06T02:50:02;8;;;4;;
75342;SDS011;63936;51.006;13.764;2023-04-06T02:52:02;10;;;6;;
75342;SDS011;63936;51.006;13.764;2023-04-06T02:54:02;8;;;4;;
75342;SDS011;63936;51.006;13.764;2023-04-06T02:56:01;7;;;4;;
75342;SDS011;63936;51.006;13.764;2023-04-06T02:58:01;7;;;4;;
75342;SDS011;63936;51.006;13.764;2023-04-06T03:00:02;11;;;6;;
75342;SDS011;63936;51.006;13.764;2023-04-06T03:02:02;11;;;6;;
75342;SDS011;63936;51.006;13.764;2023-04-06T03:04:02;11;;;6;;
75342;SDS011;63936;51.006;13.764;2023-04-06T03:06:02;11;;;6;;
75342;SDS011;63936;51.006;13.764;2023-04-06T03:08:02;8;;;4;;
75342;SDS011;63936;51.006;13.764;2023-04-06T03:10:04;8;;;4;;
75342;SDS011;63936;51.006;13.764;2023-04-06T03:12:01;8;;;3;;
75342;SDS011;63936;51.006;13.764;2023-04-06T03:14:01;10;;;5;;
75342;SDS011;63936;51.006;13.764;2023-04-06T03:16:02;9;;;6;;
75342;SDS011;63936;51.006;13.764;2023-04-06T03:18:01;9;;;5;;
75342;SDS011;63936;51.006;13.764;2023-04-06T03:20:03;7;;;4;;
75342;SDS011;63936;51.006;13.764;2023-04-06T03:22:01;7;;;4;;
75342;SDS011;63936;51.006;13.764;2023-04-06T03:24:01;7;;;4;;
75342;SDS011;63936;51.006;13.764;2023-04-06T03:26:02;10;;;5;;
75342;SDS011;63936;51.006;13.764;2023-04-06T03:28:01;9;;;5;;
75342;SDS011;63936;51.006;13.764;2023-04-06T03:30:03;10;;;4;;
75342;SDS011;63936;51.006;13.764;2023-04-06T03:32:01;9;;;3;;
75342;SDS011;63936;51.006;13.764;2023-04-06T03:34:01;7;;;3;;
75342;SDS011;63936;51.006;13.764;2023-04-06T03:36:02;4;;;2;;
75342;SDS011;63936;51.006;13.764;2023-04-06T03:38:02;5;;;2;;
75342;SDS011;63936;51.006;13.764;2023-04-06T03:40:03;5;;;2;;
75342;SDS011;63936;51.006;13.764;2023-04-06T03:42:01;10;;;5;;
75342;SDS011;63936;51.006;13.764;2023-04-06T03:44:01;9;;;6;;
75342;SDS011;63936;51.006;13.764;2023-04-06T03:46:01;9;;;6;;
75342;SDS011;63936;51.006;13.764;2023-04-06T03:48:01;11;;;5;;
75342;SDS011;63936;51.006;13.764;2023-04-06T03:50:02;9;;;5;;
75342;SDS011;63936;51.006;13.764;2023-04-06T03:52:01;9;;;5;;
75342;SDS011;63936;51.006;13.764;2023-04-06T03:54:01;7;;;3;;
75342;SDS011;63936;51.006;13.764;2023-04-06T03:56:01;7;;;3;;
75342;SDS011;63936;51.006;13.764;2023-04-06T03:58:01;7;;;3;;
75342;SDS011;63936;51.006;13.764;2023-04-06T04:00:02;9;;;5;;
75342;SDS011;63936;51.006;13.764;2023-04-06T04:02:02;8;;;4;;
75342;SDS011;63936;51.006;13.764;2023-04-06T04:04:02;7;;;4;;
75342;SDS011;63936;51.006;13.764;2023-04-06T04:06:02;7;;;4;;
75342;SDS011;63936;51.006;13.764;2023-04-06T04:08:01;7;;;3;;
75342;SDS011;63936;51.006;13.764;2023-04-06T04:10:03;7;;;3;;
75342;SDS011;63936;51.006;13.764;2023-04-06T04:12:02;9;;;5;;
75342;SDS011;63936;51.006;13.764;2023-04-06T04:14:02;8;;;5;;
75342;SDS011;63936;51.006;13.764;2023-04-06T04:16:02;8;;;5;;
75342;SDS011;63936;51.006;13.764;2023-04-06T04:18:02;10;;;6;;
75342;SDS011;63936;51.006;13.764;2023-04-06T04:20:04;10;;;6;;
75342;SDS011;63936;51.006;13.764;2023-04-06T04:22:02;10;;;7;;
75342;SDS011;63936;51.006;13.764;2023-04-06T04:24:02;9;;;5;;
75342;SDS011;63936;51.006;13.764;2023-04-06T04:26:02;7;;;4;;
75342;SDS011;63936;51.006;13.764;2023-04-06T04:28:01;8;;;4;;
75342;SDS011;63936;51.006;13.764;2023-04-06T04:30:04;7;;;3;;
75342;SDS011;63936;51.006;13.764;2023-04-06T04:32:02;7;;;3;;
75342;SDS011;63936;51.006;13.764;2023-04-06T04:34:02;8;;;3;;
75342;SDS011;63936;51.006;13.764;2023-04-06T04:36:02;11;;;6;;
75342;SDS011;63936;51.006;13.764;2023-04-06T04:38:02;11;;;6;;
75342;SDS011;63936;51.006;13.764;2023-04-06T04:40:03;11;;;6;;
75342;SDS011;63936;51.006;13.764;2023-04-06T04:42:02;12;;;7;;
75342;SDS011;63936;51.006;13.764;2023-04-06T04:44:01;12;;;7;;
75342;SDS011;63936;51.006;13.764;2023-04-06T04:46:02;10;;;6;;
75342;SDS011;63936;51.006;13.764;2023-04-06T04:48:02;8;;;5;;
75342;SDS011;63936;51.006;13.764;2023-04-06T04:50:02;11;;;4;;
75342;SDS011;63936;51.006;13.764;2023-04-06T04:52:01;8;;;4;;
75342;SDS011;63936;51.006;13.764;2023-04-06T04:54:01;7;;;4;;
75342;SDS011;63936;51.006;13.764;2023-04-06T04:56:02;7;;;4;;
75342;SDS011;63936;51.006;13.764;2023-04-06T04:58:01;10;;;6;;
75342;SDS011;63936;51.006;13.764;2023-04-06T05:00:03;9;;;5;;
75342;SDS011;63936;51.006;13.764;2023-04-06T05:02:01;9;;;5;;
75342;SDS011;63936;51.006;13.764;2023-04-06T05:04:01;8;;;4;;
75342;SDS011;63936;51.006;13.764;2023-04-06T05:06:01;9;;;4;;
75342;SDS011;63936;51.006;13.764;2023-04-06T05:08:01;6;;;3;;
75342;SDS011;63936;51.006;13.764;2023-04-06T05:10:03;6;;;3;;
75342;SDS011;63936;51.006;13.764;2023-04-06T05:12:01;8;;;4;;
75342;SDS011;63936;51.006;13.764;2023-04-06T05:14:01;8;;;4;;
75342;SDS011;63936;51.006;13.764;2023-04-06T05:16:01;7;;;4;;
75342;SDS011;63936;51.006;13.764;2023-04-06T05:18:01;7;;;4;;
75342;SDS011;63936;51.006;13.764;2023-04-06T05:20:02;9;;;4;;
75342;SDS011;63936;51.006;13.764;2023-04-06T05:22:02;7;;;4;;
75342;SDS011;63936;51.006;13.764;2023-04-06T05:24:01;8;;;4;;
75342;SDS011;63936;51.006;13.764;2023-04-06T05:26:01;8;;;4;;
75342;SDS011;63936;51.006;13.764;2023-04-06T05:28:01;9;;;4;;
75342;SDS011;63936;51.006;13.764;2023-04-06T05:30:04;8;;;4;;
75342;SDS011;63936;51.006;13.764;2023-04-06T05:32:02;7;;;4;;
75342;SDS011;63936;51.006;13.764;2023-04-06T05:34:02;8;;;4;;
75342;SDS011;63936;51.006;13.764;2023-04-06T05:36:02;9;;;4;;
75342;SDS011;63936;51.006;13.764;2023-04-06T05:38:02;8;;;4;;
75342;SDS011;63936;51.006;13.764;2023-04-06T05:40:07;7;;;4;;
75342;SDS011;63936;51.006;13.764;2023-04-06T05:42:03;7;;;4;;
75342;SDS011;63936;51.006;13.764;2023-04-06T05:44:01;7;;;4;;
75342;SDS011;63936;51.006;13.764;2023-04-06T05:46:01;7;;;4;;
75342;SDS011;63936;51.006;13.764;2023-04-06T05:48:02;9;;;5;;
75342;SDS011;63936;51.006;13.764;2023-04-06T05:50:04;9;;;4;;
75342;SDS011;63936;51.006;13.764;2023-04-06T05:52:02;9;;;5;;
75342;SDS011;63936;51.006;13.764;2023-04-06T05:54:02;10;;;5;;
75342;SDS011;63936;51.006;13.764;2023-04-06T05:56:02;8;;;3;;
75342;SDS011;63936;51.006;13.764;2023-04-06T05:58:01;8;;;4;;
75342;SDS011;63936;51.006;13.764;2023-04-06T06:00:03;10;;;4;;
75342;SDS011;63936;51.006;13.764;2023-04-06T06:02:02;8;;;4;;
75342;SDS011;63936;51.006;13.764;2023-04-06T06:04:02;15;;;4;;
75342;SDS011;63936;51.006;13.764;2023-04-06T06:06:01;12;;;4;;
75342;SDS011;63936;51.006;13.764;2023-04-06T06:08:01;8;;;4;;
75342;SDS011;63936;51.006;13.764;2023-04-06T06:10:04;8;;;4;;
75342;SDS011;63936;51.006;13.764;2023-04-06T06:12:01;9;;;5;;
75342;SDS011;63936;51.006;13.764;2023-04-06T06:14:02;12;;;6;;
75342;SDS011;63936;51.006;13.764;2023-04-06T06:16:02;36;;;16;;
75342;SDS011;63936;51.006;13.764;2023-04-06T06:18:02;33;;;14;;
75342;SDS011;63936;51.006;13.764;2023-04-06T06:20:04;24;;;10;;
75342;SDS011;63936;51.006;13.764;2023-04-06T06:22:01;25;;;11;;
75342;SDS011;63936;51.006;13.764;2023-04-06T06:24:01;26;;;12;;
75342;SDS011;63936;51.006;13.764;2023-04-06T06:26:01;21;;;10;;
75342;SDS011;63936;51.006;13.764;2023-04-06T06:28:01;20;;;10;;
75342;SDS011;63936;51.006;13.764;2023-04-06T06:30:03;26;;;14;;
75342;SDS011;63936;51.006;13.764;2023-04-06T06:32:01;21;;;11;;
75342;SDS011;63936;51.006;13.764;2023-04-06T06:34:01;16;;;8;;
75342;SDS011;63936;51.006;13.764;2023-04-06T06:36:01;13;;;6;;
75342;SDS011;63936;51.006;13.764;2023-04-06T06:38:01;13;;;7;;
75342;SDS011;63936;51.006;13.764;2023-04-06T06:40:03;16;;;10;;
75342;SDS011;63936;51.006;13.764;2023-04-06T06:42:02;13;;;8;;
75342;SDS011;63936;51.006;13.764;2023-04-06T06:44:02;10;;;7;;
75342;SDS011;63936;51.006;13.764;2023-04-06T06:46:01;9;;;6;;
75342;SDS011;63936;51.006;13.764;2023-04-06T06:48:01;10;;;5;;
75342;SDS011;63936;51.006;13.764;2023-04-06T06:50:03;9;;;5;;
75342;SDS011;63936;51.006;13.764;2023-04-06T06:52:01;9;;;5;;
75342;SDS011;63936;51.006;13.764;2023-04-06T06:54:01;9;;;5;;
75342;SDS011;63936;51.006;13.764;2023-04-06T06:56:01;9;;;5;;
75342;SDS011;63936;51.006;13.764;2023-04-06T06:58:01;10;;;5;;
75342;SDS011;63936;51.006;13.764;2023-04-06T07:00:03;10;;;6;;
75342;SDS011;63936;51.006;13.764;2023-04-06T07:02:01;11;;;6;;
75342;SDS011;63936;51.006;13.764;2023-04-06T07:04:01;10;;;6;;
75342;SDS011;63936;51.006;13.764;2023-04-06T07:06:01;11;;;6;;
75342;SDS011;63936;51.006;13.764;2023-04-06T07:08:01;10;;;5;;
75342;SDS011;63936;51.006;13.764;2023-04-06T07:10:01;9;;;5;;
75342;SDS011;63936;51.006;13.764;2023-04-06T07:12:01;9;;;6;;
75342;SDS011;63936;51.006;13.764;2023-04-06T07:14:01;9;;;6;;
75342;SDS011;63936;51.006;13.764;2023-04-06T07:16:02;12;;;6;;
75342;SDS011;63936;51.006;13.764;2023-04-06T07:18:02;12;;;6;;
75342;SDS011;63936;51.006;13.764;2023-04-06T07:20:03;9;;;6;;
75342;SDS011;63936;51.006;13.764;2023-04-06T07:22:01;10;;;6;;
75342;SDS011;63936;51.006;13.764;2023-04-06T07:24:01;9;;;6;;
75342;SDS011;63936;51.006;13.764;2023-04-06T07:26:01;9;;;6;;
75342;SDS011;63936;51.006;13.764;2023-04-06T07:28:01;11;;;6;;
75342;SDS011;63936;51.006;13.764;2023-04-06T07:30:02;10;;;6;;
75342;SDS011;63936;51.006;13.764;2023-04-06T07:32:01;10;;;6;;
75342;SDS011;63936;51.006;13.764;2023-04-06T07:34:01;9;;;6;;
75342;SDS011;63936;51.006;13.764;2023-04-06T07:36:02;10;;;6;;
75342;SDS011;63936;51.006;13.764;2023-04-06T07:38:02;10;;;5;;
75342;SDS011;63936;51.006;13.764;2023-04-06T07:40:02;10;;;6;;
75342;SDS011;63936;51.006;13.764;2023-04-06T07:42:02;10;;;6;;
75342;SDS011;63936;51.006;13.764;2023-04-06T07:44:01;9;;;6;;
75342;SDS011;63936;51.006;13.764;2023-04-06T07:46:01;9;;;6;;
75342;SDS011;63936;51.006;13.764;2023-04-06T07:48:01;9;;;6;;
75342;SDS011;63936;51.006;13.764;2023-04-06T07:50:02;10;;;6;;
75342;SDS011;63936;51.006;13.764;2023-04-06T07:52:02;10;;;6;;
75342;SDS011;63936;51.006;13.764;2023-04-06T07:54:01;9;;;5;;
75342;SDS011;63936;51.006;13.764;2023-04-06T07:56:01;11;;;5;;
75342;SDS011;63936;51.006;13.764;2023-04-06T07:58:01;11;;;5;;
75342;SDS011;63936;51.006;13.764;2023-04-06T08:00:02;9;;;5;;
75342;SDS011;63936;51.006;13.764;2023-04-06T08:02:01;8;;;5;;
75342;SDS011;63936;51.006;13.764;2023-04-06T08:04:01;8;;;5;;
75342;SDS011;63936;51.006;13.764;2023-04-06T08:06:02;8;;;5;;
75342;SDS011;63936;51.006;13.764;2023-04-06T08:08:01;10;;;5;;
75342;SDS011;63936;51.006;13.764;2023-04-06T08:10:02;8;;;5;;
75342;SDS011;63936;51.006;13.764;2023-04-06T08:12:01;9;;;5;;
75342;SDS011;63936;51.006;13.764;2023-04-06T08:14:01;8;;;5;;
75342;SDS011;63936;51.006;13.764;2023-04-06T08:16:02;10;;;5;;
75342;SDS011;63936;51.006;13.764;2023-04-06T08:18:02;10;;;5;;
75342;SDS011;63936;51.006;13.764;2023-04-06T08:20:02;10;;;5;;
75342;SDS011;63936;51.006;13.764;2023-04-06T08:22:01;9;;;5;;
75342;SDS011;63936;51.006;13.764;2023-04-06T08:24:01;12;;;5;;
75342;SDS011;63936;51.006;13.764;2023-04-06T08:26:01;12;;;5;;
75342;SDS011;63936;51.006;13.764;2023-04-06T08:28:02;9;;;5;;
75342;SDS011;63936;51.006;13.764;2023-04-06T08:30:02;9;;;5;;
75342;SDS011;63936;51.006;13.764;2023-04-06T08:32:01;10;;;5;;
75342;SDS011;63936;51.006;13.764;2023-04-06T08:34:03;9;;;5;;
75342;SDS011;63936;51.006;13.764;2023-04-06T08:36:09;9;;;4;;
75342;SDS011;63936;51.006;13.764;2023-04-06T08:38:02;9;;;4;;
75342;SDS011;63936;51.006;13.764;2023-04-06T08:40:02;11;;;6;;
75342;SDS011;63936;51.006;13.764;2023-04-06T08:42:01;10;;;5;;
75342;SDS011;63936;51.006;13.764;2023-04-06T08:44:01;7;;;5;;
75342;SDS011;63936;51.006;13.764;2023-04-06T08:46:01;7;;;4;;
75342;SDS011;63936;51.006;13.764;2023-04-06T08:48:01;8;;;5;;
75342;SDS011;63936;51.006;13.764;2023-04-06T08:50:02;10;;;5;;
75342;SDS011;63936;51.006;13.764;2023-04-06T08:52:02;9;;;5;;
75342;SDS011;63936;51.006;13.764;2023-04-06T08:54:01;8;;;5;;
75342;SDS011;63936;51.006;13.764;2023-04-06T08:56:01;8;;;4;;
75342;SDS011;63936;51.006;13.764;2023-04-06T08:58:01;8;;;4;;
75342;SDS011;63936;51.006;13.764;2023-04-06T09:00:03;11;;;4;;
75342;SDS011;63936;51.006;13.764;2023-04-06T09:02:02;9;;;4;;
75342;SDS011;63936;51.006;13.764;2023-04-06T09:04:01;7;;;4;;
75342;SDS011;63936;51.006;13.764;2023-04-06T09:06:02;7;;;4;;
75342;SDS011;63936;51.006;13.764;2023-04-06T09:08:02;7;;;4;;
75342;SDS011;63936;51.006;13.764;2023-04-06T09:10:03;7;;;4;;
75342;SDS011;63936;51.006;13.764;2023-04-06T09:12:02;7;;;4;;
75342;SDS011;63936;51.006;13.764;2023-04-06T09:14:02;7;;;4;;
75342;SDS011;63936;51.006;13.764;2023-04-06T09:16:01;8;;;4;;
75342;SDS011;63936;51.006;13.764;2023-04-06T09:18:01;8;;;4;;
75342;SDS011;63936;51.006;13.764;2023-04-06T09:20:02;7;;;4;;
75342;SDS011;63936;51.006;13.764;2023-04-06T09:22:02;7;;;3;;
75342;SDS011;63936;51.006;13.764;2023-04-06T09:24:01;7;;;4;;
75342;SDS011;63936;51.006;13.764;2023-04-06T09:26:05;7;;;4;;
75342;SDS011;63936;51.006;13.764;2023-04-06T09:28:01;8;;;3;;
75342;SDS011;63936;51.006;13.764;2023-04-06T09:30:03;7;;;4;;
75342;SDS011;63936;51.006;13.764;2023-04-06T09:32:02;6;;;4;;
75342;SDS011;63936;51.006;13.764;2023-04-06T09:34:01;6;;;4;;
75342;SDS011;63936;51.006;13.764;2023-04-06T09:36:01;6;;;4;;
75342;SDS011;63936;51.006;13.764;2023-04-06T09:38:09;6;;;4;;
75342;SDS011;63936;51.006;13.764;2023-04-06T09:40:02;7;;;4;;
75342;SDS011;63936;51.006;13.764;2023-04-06T09:42:01;6;;;4;;
75342;SDS011;63936;51.006;13.764;2023-04-06T09:44:02;6;;;4;;
75342;SDS011;63936;51.006;13.764;2023-04-06T09:46:02;7;;;4;;
75342;SDS011;63936;51.006;13.764;2023-04-06T09:48:02;7;;;4;;
75342;SDS011;63936;51.006;13.764;2023-04-06T09:50:02;7;;;4;;
75342;SDS011;63936;51.006;13.764;2023-04-06T09:52:01;6;;;4;;
75342;SDS011;63936;51.006;13.764;2023-04-06T09:54:01;6;;;4;;
75342;SDS011;63936;51.006;13.764;2023-04-06T09:56:02;6;;;4;;
75342;SDS011;63936;51.006;13.764;2023-04-06T09:58:03;7;;;4;;
75342;SDS011;63936;51.006;13.764;2023-04-06T10:00:03;7;;;4;;
75342;SDS011;63936;51.006;13.764;2023-04-06T10:02:01;7;;;4;;
75342;SDS011;63936;51.006;13.764;2023-04-06T10:04:05;7;;;4;;
75342;SDS011;63936;51.006;13.764;2023-04-06T10:06:02;6;;;3;;
75342;SDS011;63936;51.006;13.764;2023-04-06T10:08:05;7;;;4;;
75342;SDS011;63936;51.006;13.764;2023-04-06T10:10:02;8;;;3;;
75342;SDS011;63936;51.006;13.764;2023-04-06T10:12:02;6;;;3;;
75342;SDS011;63936;51.006;13.764;2023-04-06T10:14:01;6;;;3;;
75342;SDS011;63936;51.006;13.764;2023-04-06T10:16:01;5;;;3;;
75342;SDS011;63936;51.006;13.764;2023-04-06T10:18:01;7;;;3;;
75342;SDS011;63936;51.006;13.764;2023-04-06T10:20:03;6;;;3;;
75342;SDS011;63936;51.006;13.764;2023-04-06T10:22:01;6;;;3;;
75342;SDS011;63936;51.006;13.764;2023-04-06T10:24:01;5;;;3;;
75342;SDS011;63936;51.006;13.764;2023-04-06T10:26:01;7;;;4;;
75342;SDS011;63936;51.006;13.764;2023-04-06T10:28:01;6;;;3;;
75342;SDS011;63936;51.006;13.764;2023-04-06T10:30:02;5;;;3;;
75342;SDS011;63936;51.006;13.764;2023-04-06T10:32:02;6;;;3;;
75342;SDS011;63936;51.006;13.764;2023-04-06T10:34:02;5;;;3;;
75342;SDS011;63936;51.006;13.764;2023-04-06T10:36:09;6;;;3;;
75342;SDS011;63936;51.006;13.764;2023-04-06T10:38:02;6;;;3;;
75342;SDS011;63936;51.006;13.764;2023-04-06T10:40:03;7;;;3;;
75342;SDS011;63936;51.006;13.764;2023-04-06T10:42:05;7;;;3;;
75342;SDS011;63936;51.006;13.764;2023-04-06T10:44:01;6;;;3;;
75342;SDS011;63936;51.006;13.764;2023-04-06T10:46:02;8;;;3;;
75342;SDS011;63936;51.006;13.764;2023-04-06T10:48:12;6;;;3;;
75342;SDS011;63936;51.006;13.764;2023-04-06T10:50:02;6;;;3;;
75342;SDS011;63936;51.006;13.764;2023-04-06T10:52:01;6;;;3;;
75342;SDS011;63936;51.006;13.764;2023-04-06T10:54:01;8;;;3;;
75342;SDS011;63936;51.006;13.764;2023-04-06T10:56:01;6;;;3;;
75342;SDS011;63936;51.006;13.764;2023-04-06T10:58:01;5;;;3;;
75342;SDS011;63936;51.006;13.764;2023-04-06T11:00:03;6;;;3;;
75342;SDS011;63936;51.006;13.764;2023-04-06T11:02:02;6;;;3;;
75342;SDS011;63936;51.006;13.764;2023-04-06T11:04:02;6;;;3;;
75342;SDS011;63936;51.006;13.764;2023-04-06T11:06:01;6;;;3;;
75342;SDS011;63936;51.006;13.764;2023-04-06T11:08:01;6;;;3;;
75342;SDS011;63936;51.006;13.764;2023-04-06T11:10:02;6;;;3;;
75342;SDS011;63936;51.006;13.764;2023-04-06T11:12:02;5;;;3;;
75342;SDS011;63936;51.006;13.764;2023-04-06T11:14:02;7;;;3;;
75342;SDS011;63936;51.006;13.764;2023-04-06T11:16:01;6;;;3;;
75342;SDS011;63936;51.006;13.764;2023-04-06T11:18:03;6;;;3;;
75342;SDS011;63936;51.006;13.764;2023-04-06T11:20:03;8;;;3;;
75342;SDS011;63936;51.006;13.764;2023-04-06T11:22:06;6;;;3;;
75342;SDS011;63936;51.006;13.764;2023-04-06T11:24:05;6;;;3;;
75342;SDS011;63936;51.006;13.764;2023-04-06T11:26:02;6;;;3;;
75342;SDS011;63936;51.006;13.764;2023-04-06T11:28:01;6;;;4;;
75342;SDS011;63936;51.006;13.764;2023-04-06T11:30:02;6;;;4;;
75342;SDS011;63936;51.006;13.764;2023-04-06T11:32:01;6;;;3;;
75342;SDS011;63936;51.006;13.764;2023-04-06T11:34:01;7;;;3;;
75342;SDS011;63936;51.006;13.764;2023-04-06T11:36:02;6;;;4;;
75342;SDS011;63936;51.006;13.764;2023-04-06T11:38:02;5;;;3;;
75342;SDS011;63936;51.006;13.764;2023-04-06T11:40:02;8;;;3;;
75342;SDS011;63936;51.006;13.764;2023-04-06T11:42:02;6;;;3;;
75342;SDS011;63936;51.006;13.764;2023-04-06T11:44:01;6;;;3;;
75342;SDS011;63936;51.006;13.764;2023-04-06T11:46:01;7;;;4;;
75342;SDS011;63936;51.006;13.764;2023-04-06T11:48:01;8;;;4;;
75342;SDS011;63936;51.006;13.764;2023-04-06T11:50:05;6;;;4;;
75342;SDS011;63936;51.006;13.764;2023-04-06T11:52:02;6;;;3;;
75342;SDS011;63936;51.006;13.764;2023-04-06T11:54:02;6;;;3;;
75342;SDS011;63936;51.006;13.764;2023-04-06T11:56:01;6;;;4;;
75342;SDS011;63936;51.006;13.764;2023-04-06T11:58:01;6;;;3;;
75342;SDS011;63936;51.006;13.764;2023-04-06T12:00:03;6;;;3;;
75342;SDS011;63936;51.006;13.764;2023-04-06T12:02:01;8;;;4;;
75342;SDS011;63936;51.006;13.764;2023-04-06T12:04:01;6;;;3;;
75342;SDS011;63936;51.006;13.764;2023-04-06T12:06:01;7;;;3;;
75342;SDS011;63936;51.006;13.764;2023-04-06T12:08:01;6;;;4;;
75342;SDS011;63936;51.006;13.764;2023-04-06T12:10:02;7;;;3;;
75342;SDS011;63936;51.006;13.764;2023-04-06T12:12:01;6;;;3;;
75342;SDS011;63936;51.006;13.764;2023-04-06T12:14:01;5;;;3;;
75342;SDS011;63936;51.006;13.764;2023-04-06T12:16:01;6;;;3;;
75342;SDS011;63936;51.006;13.764;2023-04-06T12:18:01;5;;;2;;
75342;SDS011;63936;51.006;13.764;2023-04-06T12:20:02;6;;;4;;
75342;SDS011;63936;51.006;13.764;2023-04-06T12:22:01;7;;;3;;
75342;SDS011;63936;51.006;13.764;2023-04-06T12:24:01;6;;;3;;
75342;SDS011;63936;51.006;13.764;2023-04-06T12:26:01;6;;;3;;
75342;SDS011;63936;51.006;13.764;2023-04-06T12:28:01;5;;;2;;
75342;SDS011;63936;51.006;13.764;2023-04-06T12:30:02;6;;;3;;
75342;SDS011;63936;51.006;13.764;2023-04-06T12:32:01;6;;;3;;
75342;SDS011;63936;51.006;13.764;2023-04-06T12:34:01;6;;;3;;
75342;SDS011;63936;51.006;13.764;2023-04-06T12:36:01;9;;;3;;
75342;SDS011;63936;51.006;13.764;2023-04-06T12:38:01;6;;;3;;
75342;SDS011;63936;51.006;13.764;2023-04-06T12:40:03;8;;;3;;
75342;SDS011;63936;51.006;13.764;2023-04-06T12:42:01;6;;;3;;
75342;SDS011;63936;51.006;13.764;2023-04-06T12:44:01;6;;;3;;
75342;SDS011;63936;51.006;13.764;2023-04-06T12:46:02;6;;;3;;
75342;SDS011;63936;51.006;13.764;2023-04-06T12:48:02;7;;;4;;
75342;SDS011;63936;51.006;13.764;2023-04-06T12:50:03;7;;;3;;
75342;SDS011;63936;51.006;13.764;2023-04-06T12:52:01;7;;;4;;
75342;SDS011;63936;51.006;13.764;2023-04-06T12:54:01;9;;;4;;
75342;SDS011;63936;51.006;13.764;2023-04-06T12:56:02;6;;;3;;
75342;SDS011;63936;51.006;13.764;2023-04-06T12:58:02;7;;;4;;